createdAt,value
2023-01-29T00:01:58.522Z,63.19
2023-01-29T00:04:25.228Z,63.63
2023-01-29T00:06:51.852Z,63.57
2023-01-29T00:09:18.895Z,63.16
2023-01-29T00:11:45.529Z,63.74
2023-01-29T00:14:12.273Z,63.58
2023-01-29T00:16:38.937Z,63.45
2023-01-29T00:19:05.730Z,64.25
2023-01-29T00:21:32.363Z,63.73
2023-01-29T00:24:00.031Z,63.65
2023-01-29T00:26:27.474Z,63.25
2023-01-29T00:28:54.573Z,63.29
2023-01-29T00:31:25.228Z,63.67
2023-01-29T00:33:52.485Z,63.59
2023-01-29T00:36:21.005Z,63.87
2023-01-29T00:38:54.911Z,63.13
2023-01-29T00:41:41.527Z,63.83
2023-01-29T00:44:26.626Z,63.74
2023-01-29T00:46:53.529Z,63.97
2023-01-29T00:49:20.672Z,63.44
2023-01-29T00:52:06.213Z,63.11
2023-01-29T00:54:33.277Z,63.35
2023-01-29T00:57:00.838Z,63.40
2023-01-29T00:59:27.689Z,64.41
2023-01-29T01:02:13.410Z,64.17
2023-01-29T01:04:40.493Z,63.53
2023-01-29T01:07:07.411Z,63.79
2023-01-29T01:09:56.196Z,63.59
2023-01-29T01:12:23.151Z,63.61
2023-01-29T01:14:50.096Z,63.68
2023-01-29T01:17:17.284Z,64.44
2023-01-29T01:19:43.907Z,63.84
2023-01-29T01:22:11.067Z,64.37
2023-01-29T01:24:38.336Z,65.36
2023-01-29T01:27:05.760Z,64.11
2023-01-29T01:29:32.811Z,63.78
2023-01-29T01:32:00.170Z,63.75
2023-01-29T01:34:27.177Z,63.90
2023-01-29T01:36:55.906Z,63.99
2023-01-29T01:39:23.850Z,64.59
2023-01-29T01:41:53.609Z,65.15
2023-01-29T01:44:51.521Z,65.67
2023-01-29T01:47:23.762Z,64.59
2023-01-29T01:49:51.382Z,64.43
2023-01-29T01:52:19.559Z,64.44
2023-01-29T01:54:46.762Z,64.49
2023-01-29T01:57:18.453Z,64.82
2023-01-29T01:59:53.489Z,64.73
2023-01-29T02:02:39.420Z,64.39
2023-01-29T02:05:26.043Z,65.80
2023-01-29T02:08:11.434Z,64.96
2023-01-29T02:10:49.788Z,65.02
2023-01-29T02:13:19.529Z,64.91
2023-01-29T02:15:48.582Z,65.14
2023-01-29T02:18:20.239Z,65.88
2023-01-29T02:21:15.185Z,65.67
2023-01-29T02:24:11.433Z,64.59
2023-01-29T02:26:50.060Z,65.13
2023-01-29T02:29:47.347Z,65.74
2023-01-29T02:32:23.512Z,65.31
2023-01-29T02:35:09.101Z,63.65
2023-01-29T02:37:50.375Z,63.92
2023-01-29T02:40:44.066Z,65.15
2023-01-29T02:43:26.093Z,65.38
2023-01-29T02:46:16.917Z,64.58
2023-01-29T02:49:18.894Z,65.43
2023-01-29T02:52:11.533Z,64.76
2023-01-29T02:54:51.753Z,64.47
2023-01-29T02:57:29.290Z,64.68
2023-01-29T03:00:02.835Z,64.46
2023-01-29T03:02:40.270Z,64.82
2023-01-29T03:05:13.169Z,65.27
2023-01-29T03:07:46.292Z,65.45
2023-01-29T03:11:06.918Z,65.27
2023-01-29T03:13:45.380Z,65.04
2023-01-29T03:16:19.272Z,65.09
2023-01-29T03:18:54.132Z,65.53
2023-01-29T03:21:44.387Z,65.05
2023-01-29T03:24:32.235Z,65.36
2023-01-29T03:27:22.977Z,65.23
2023-01-29T03:30:10.182Z,66.04
2023-01-29T03:33:02.904Z,65.42
2023-01-29T03:35:39.580Z,64.38
2023-01-29T03:38:10.159Z,64.90
2023-01-29T03:40:52.497Z,65.81
2023-01-29T03:43:26.330Z,65.85
2023-01-29T03:46:19.122Z,65.69
2023-01-29T03:48:45.896Z,66.12
2023-01-29T03:51:27.968Z,65.18
2023-01-29T03:54:20.171Z,64.40
2023-01-29T03:57:15.568Z,64.93
2023-01-29T04:00:19.249Z,66.03
2023-01-29T04:03:26.859Z,65.83
2023-01-29T04:06:09.946Z,65.47
2023-01-29T04:09:22.143Z,66.53
2023-01-29T04:12:09.124Z,65.76
2023-01-29T04:14:39.422Z,65.08
2023-01-29T04:17:19.966Z,65.09
2023-01-29T04:19:56.909Z,64.64
2023-01-29T04:22:31.249Z,65.18
2023-01-29T04:25:02.690Z,65.34
2023-01-29T04:27:37.771Z,65.78
2023-01-29T04:30:18.115Z,66.68
2023-01-29T04:32:55.311Z,65.48
2023-01-29T04:35:30.181Z,65.01
2023-01-29T04:38:06.685Z,65.71
2023-01-29T04:40:39.352Z,65.64
2023-01-29T04:43:27.191Z,66.10
2023-01-29T04:46:12.888Z,66.40
2023-01-29T04:48:42.566Z,66.71
2023-01-29T04:51:12.033Z,66.29
2023-01-29T04:53:59.976Z,65.88
2023-01-29T04:56:39.038Z,65.27
2023-01-29T04:59:09.958Z,65.13
2023-01-29T05:01:38.605Z,66.09
2023-01-29T05:04:10.981Z,65.57
2023-01-29T05:06:39.350Z,66.30
2023-01-29T05:09:07.390Z,66.73
2023-01-29T05:11:35.830Z,65.74
2023-01-29T05:14:05.455Z,65.17
2023-01-29T05:16:42.114Z,65.43
2023-01-29T05:19:14.654Z,66.63
2023-01-29T05:21:44.788Z,65.34
2023-01-29T05:24:11.492Z,66.76
2023-01-29T05:26:56.633Z,65.19
2023-01-29T05:29:23.365Z,65.39
2023-01-29T05:31:50.019Z,64.76
2023-01-29T05:34:17.026Z,66.16
2023-01-29T05:36:43.721Z,65.49
2023-01-29T05:39:10.428Z,65.85
2023-01-29T05:41:37.124Z,65.25
2023-01-29T05:44:03.889Z,65.21
2023-01-29T05:46:30.595Z,65.11
2023-01-29T05:48:57.384Z,65.07
2023-01-29T05:51:23.908Z,65.04
2023-01-29T05:53:50.758Z,65.09
2023-01-29T05:56:17.403Z,65.60
2023-01-29T05:58:44.017Z,66.68
2023-01-29T06:01:13.699Z,65.54
2023-01-29T06:03:41.431Z,66.98
2023-01-29T06:06:08.832Z,65.79
2023-01-29T06:08:36.153Z,65.68
2023-01-29T06:11:03.015Z,65.90
2023-01-29T06:13:29.603Z,65.50
2023-01-29T06:15:56.292Z,66.40
2023-01-29T06:18:23.063Z,66.75
2023-01-29T06:20:49.589Z,65.22
2023-01-29T06:23:16.303Z,65.32
2023-01-29T06:25:43.086Z,64.94
2023-01-29T06:28:09.744Z,65.18
2023-01-29T06:30:36.363Z,67.03
2023-01-29T06:33:03.210Z,65.65
2023-01-29T06:35:30.163Z,64.78
2023-01-29T06:37:56.897Z,66.33
2023-01-29T06:40:23.576Z,65.64
2023-01-29T06:42:50.285Z,66.27
2023-01-29T06:45:16.881Z,66.43
2023-01-29T06:47:43.625Z,65.20
2023-01-29T06:50:11.599Z,65.50
2023-01-29T06:52:38.292Z,65.25
2023-01-29T06:55:05.423Z,66.82
2023-01-29T06:57:32.061Z,66.99
2023-01-29T06:59:58.626Z,66.13
2023-01-29T07:02:25.388Z,65.61
2023-01-29T07:04:52.033Z,66.96
2023-01-29T07:07:18.840Z,65.75
2023-01-29T07:09:45.709Z,66.95
2023-01-29T07:12:12.326Z,66.42
2023-01-29T07:14:38.973Z,66.37
2023-01-29T07:17:05.745Z,66.66
2023-01-29T07:19:33.058Z,67.02
2023-01-29T07:22:02.413Z,65.85
2023-01-29T07:24:29.274Z,66.49
2023-01-29T07:26:56.093Z,65.87
2023-01-29T07:29:22.747Z,67.01
2023-01-29T07:31:49.566Z,67.97
2023-01-29T07:34:16.328Z,66.89
2023-01-29T07:36:43.047Z,67.71
2023-01-29T07:39:09.736Z,68.16
2023-01-29T07:41:36.457Z,67.57
2023-01-29T07:44:10.836Z,66.85
2023-01-29T07:46:37.505Z,66.26
2023-01-29T07:49:04.093Z,67.31
2023-01-29T07:51:30.797Z,67.04
2023-01-29T07:53:57.390Z,68.03
2023-01-29T07:56:24.075Z,68.87
2023-01-29T07:58:50.689Z,68.68
2023-01-29T08:01:17.430Z,67.63
2023-01-29T08:03:44.074Z,68.62
2023-01-29T08:06:10.724Z,67.47
2023-01-29T08:08:37.306Z,68.57
2023-01-29T08:11:05.665Z,68.40
2023-01-29T08:13:32.680Z,67.56
2023-01-29T08:16:01.210Z,68.33
2023-01-29T08:18:27.887Z,69.58
2023-01-29T08:21:00.405Z,68.54
2023-01-29T08:23:27.166Z,68.95
2023-01-29T08:25:53.858Z,68.70
2023-01-29T08:28:20.720Z,69.04
2023-01-29T08:30:47.457Z,70.38
2023-01-29T08:33:14.153Z,70.71
2023-01-29T08:35:41.376Z,70.41
2023-01-29T08:38:10.195Z,69.74
2023-01-29T08:40:37.480Z,70.62
2023-01-29T08:43:09.517Z,70.04
2023-01-29T08:45:40.220Z,69.05
2023-01-29T08:48:07.804Z,70.06
2023-01-29T08:50:35.113Z,68.64
2023-01-29T08:53:04.361Z,68.00
2023-01-29T08:55:31.001Z,68.37
2023-01-29T08:57:57.695Z,68.77
2023-01-29T09:00:24.689Z,67.81
2023-01-29T09:02:51.349Z,68.17
2023-01-29T09:05:18.533Z,67.56
2023-01-29T09:07:45.349Z,67.10
2023-01-29T09:10:12.322Z,67.48
2023-01-29T09:12:39.260Z,65.51
2023-01-29T09:15:06.336Z,66.19
2023-01-29T09:17:33.039Z,66.60
2023-01-29T09:19:59.706Z,65.51
2023-01-29T09:22:26.403Z,65.88
2023-01-29T09:24:52.997Z,65.71
2023-01-29T09:27:19.768Z,65.15
2023-01-29T09:29:46.365Z,66.22
2023-01-29T09:32:13.133Z,65.77
2023-01-29T09:34:40.157Z,65.84
2023-01-29T09:37:06.878Z,65.80
2023-01-29T09:39:33.816Z,66.14
2023-01-29T09:42:24.543Z,68.32
2023-01-29T09:45:03.886Z,68.16
2023-01-29T09:47:33.447Z,67.39
2023-01-29T09:50:26.415Z,67.60
2023-01-29T09:53:02.084Z,67.71
2023-01-29T09:55:43.738Z,67.44
2023-01-29T09:58:28.103Z,68.00
2023-01-29T10:01:04.691Z,67.86
2023-01-29T10:03:34.156Z,68.32
2023-01-29T10:06:23.307Z,67.64
2023-01-29T10:09:25.834Z,67.58
2023-01-29T10:12:05.673Z,67.71
2023-01-29T10:14:41.775Z,68.10
2023-01-29T10:17:31.090Z,67.84
2023-01-29T10:20:39.105Z,67.36
2023-01-29T10:23:11.478Z,66.93
2023-01-29T10:25:41.822Z,66.57
2023-01-29T10:28:21.490Z,65.39
2023-01-29T10:30:57.619Z,64.94
2023-01-29T10:33:49.389Z,63.60
2023-01-29T10:36:38.589Z,63.01
2023-01-29T10:39:05.256Z,62.56
2023-01-29T10:42:06.604Z,61.15
2023-01-29T10:44:41.610Z,60.56
2023-01-29T10:47:42.234Z,60.82
2023-01-29T10:50:28.504Z,60.73
2023-01-29T10:53:07.298Z,59.38
2023-01-29T10:55:36.890Z,58.88
2023-01-29T10:58:24.707Z,58.86
2023-01-29T11:00:51.561Z,58.27
2023-01-29T11:06:17.333Z,59.03
2023-01-29T11:08:54.318Z,58.81
2023-01-29T11:11:26.277Z,60.99
2023-01-29T11:14:00.366Z,57.40
2023-01-29T11:16:30.069Z,57.79
2023-01-29T11:19:00.081Z,58.60
2023-01-29T11:21:28.518Z,57.76
2023-01-29T11:24:07.232Z,57.89
2023-01-29T11:26:38.083Z,57.38
2023-01-29T11:29:04.923Z,57.42
2023-01-29T11:31:38.944Z,58.10
2023-01-29T11:34:16.650Z,58.19
2023-01-29T11:36:45.026Z,59.01
2023-01-29T11:39:17.475Z,58.04
2023-01-29T11:41:53.182Z,56.91
2023-01-29T11:44:20.854Z,56.53
2023-01-29T11:46:48.752Z,56.48
2023-01-29T11:49:28.022Z,55.58
2023-01-29T11:51:56.501Z,54.01
2023-01-29T11:54:28.089Z,54.20
2023-01-29T11:56:56.111Z,53.41
2023-01-29T11:59:54.996Z,53.74
2023-01-29T12:02:28.074Z,52.91
2023-01-29T12:05:00.418Z,53.54
2023-01-29T12:07:28.792Z,51.46
2023-01-29T12:09:58.085Z,52.82
2023-01-29T12:12:30.127Z,52.93
2023-01-29T12:15:05.133Z,54.46
2023-01-29T12:17:35.387Z,54.83
2023-01-29T12:20:13.548Z,53.52
2023-01-29T12:22:53.410Z,53.63
2023-01-29T12:25:26.017Z,52.64
2023-01-29T12:28:27.957Z,52.09
2023-01-29T12:31:11.530Z,52.25
2023-01-29T12:33:49.441Z,52.09
2023-01-29T12:36:28.988Z,53.06
2023-01-29T12:38:55.983Z,50.66
2023-01-29T12:41:33.756Z,51.26
2023-01-29T12:44:15.733Z,52.29
2023-01-29T12:46:50.963Z,51.16
2023-01-29T12:49:22.960Z,50.69
2023-01-29T12:51:59.534Z,50.75
2023-01-29T12:54:36.982Z,50.79
2023-01-29T12:57:28.714Z,49.78
2023-01-29T13:00:02.543Z,49.61
2023-01-29T13:02:39.827Z,48.41
2023-01-29T13:05:24.641Z,50.18
2023-01-29T13:08:01.374Z,48.31
2023-01-29T13:10:35.060Z,49.26
2023-01-29T13:13:07.303Z,49.19
2023-01-29T13:15:39.758Z,49.40
2023-01-29T13:18:31.209Z,48.61
2023-01-29T13:20:59.388Z,48.86
2023-01-29T13:23:34.677Z,48.51
2023-01-29T13:26:01.828Z,49.97
2023-01-29T13:28:28.557Z,48.78
2023-01-29T13:31:24.815Z,48.45
2023-01-29T13:34:14.933Z,48.28
2023-01-29T13:36:57.185Z,47.98
2023-01-29T13:39:32.985Z,47.76
2023-01-29T13:42:02.916Z,46.75
2023-01-29T13:44:39.692Z,47.84
2023-01-29T13:47:10.790Z,47.56
2023-01-29T13:49:42.330Z,47.37
2023-01-29T13:52:27.653Z,47.65
2023-01-29T13:55:01.655Z,48.56
2023-01-29T13:57:37.240Z,47.92
2023-01-29T14:00:04.967Z,47.77
2023-01-29T14:02:32.069Z,46.90
2023-01-29T14:05:29.831Z,47.42
2023-01-29T14:08:17.445Z,47.12
2023-01-29T14:10:44.661Z,47.18
2023-01-29T14:13:23.512Z,47.15
2023-01-29T14:15:59.197Z,47.86
2023-01-29T14:18:28.403Z,46.59
2023-01-29T14:21:17.775Z,46.60
2023-01-29T14:23:53.546Z,47.39
2023-01-29T14:26:45.531Z,47.45
2023-01-29T14:29:14.438Z,47.93
2023-01-29T14:31:54.731Z,46.96
2023-01-29T14:34:26.829Z,47.47
2023-01-29T14:36:56.901Z,47.62
2023-01-29T14:39:31.217Z,48.07
2023-01-29T14:41:59.510Z,47.64
2023-01-29T14:44:44.536Z,48.12
2023-01-29T14:47:32.926Z,48.56
2023-01-29T14:50:01.919Z,48.33
2023-01-29T14:52:35.933Z,47.82
2023-01-29T14:55:07.712Z,48.90
2023-01-29T14:57:36.377Z,50.24
2023-01-29T15:00:06.450Z,49.42
2023-01-29T15:02:41.245Z,49.28
2023-01-29T15:05:13.437Z,48.76
2023-01-29T15:07:48.872Z,49.35
2023-01-29T15:10:25.222Z,48.40
2023-01-29T15:13:13.871Z,48.54
2023-01-29T15:16:13.305Z,49.18
2023-01-29T15:18:43.969Z,49.00
2023-01-29T15:21:18.689Z,48.84
2023-01-29T15:23:48.812Z,49.14
2023-01-29T15:26:21.712Z,49.75
2023-01-29T15:29:03.524Z,50.03
2023-01-29T15:31:31.286Z,51.08
2023-01-29T15:34:03.116Z,51.59
2023-01-29T15:36:31.610Z,52.24
2023-01-29T15:39:18.915Z,52.11
2023-01-29T15:41:46.018Z,52.07
2023-01-29T15:44:19.150Z,52.96
2023-01-29T15:46:51.021Z,53.29
2023-01-29T15:49:26.040Z,53.49
2023-01-29T15:51:57.557Z,54.14
2023-01-29T15:54:24.979Z,53.59
2023-01-29T15:56:53.453Z,54.34
2023-01-29T15:59:26.596Z,53.73
2023-01-29T16:01:54.079Z,54.32
2023-01-29T16:04:30.976Z,54.58
2023-01-29T16:07:00.469Z,54.75
2023-01-29T16:09:28.837Z,54.94
2023-01-29T16:11:58.634Z,55.28
2023-01-29T16:14:26.804Z,55.37
2023-01-29T16:16:53.966Z,56.43
2023-01-29T16:19:26.154Z,56.97
2023-01-29T16:22:05.902Z,57.18
2023-01-29T16:24:36.309Z,57.71
2023-01-29T16:27:12.761Z,57.75
2023-01-29T16:29:39.863Z,58.14
2023-01-29T16:32:06.975Z,57.63
2023-01-29T16:34:38.652Z,57.95
2023-01-29T16:37:16.462Z,57.80
2023-01-29T16:39:49.058Z,57.63
2023-01-29T16:42:17.385Z,57.25
2023-01-29T16:44:52.069Z,57.51
2023-01-29T16:47:32.406Z,57.87
2023-01-29T16:50:17.625Z,57.40
2023-01-29T16:53:00.333Z,58.62
2023-01-29T16:55:35.370Z,58.39
2023-01-29T16:58:12.077Z,58.31
2023-01-29T17:00:47.764Z,58.40
2023-01-29T17:03:15.401Z,59.47
2023-01-29T17:05:42.562Z,59.16
2023-01-29T17:08:23.364Z,59.22
2023-01-29T17:10:50.192Z,58.85
2023-01-29T17:13:41.745Z,59.30
2023-01-29T17:16:49.045Z,58.79
2023-01-29T17:19:22.575Z,59.92
2023-01-29T17:21:49.602Z,60.28
2023-01-29T17:24:16.355Z,60.24
2023-01-29T17:26:43.534Z,60.17
2023-01-29T17:29:15.564Z,60.23
2023-01-29T17:31:43.377Z,60.69
2023-01-29T17:34:14.855Z,61.04
2023-01-29T17:36:45.172Z,60.97
2023-01-29T17:39:19.734Z,60.59
2023-01-29T17:41:54.451Z,60.82
2023-01-29T17:44:22.244Z,60.41
2023-01-29T17:46:49.574Z,60.86
2023-01-29T17:49:28.466Z,60.88
2023-01-29T17:51:57.043Z,60.80
2023-01-29T17:54:25.544Z,60.35
2023-01-29T17:56:53.057Z,59.94
2023-01-29T17:59:24.852Z,60.64
2023-01-29T18:01:51.947Z,60.58
2023-01-29T18:04:18.757Z,60.80
2023-01-29T18:06:48.575Z,60.67
2023-01-29T18:09:18.967Z,60.73
2023-01-29T18:11:46.606Z,60.98
2023-01-29T18:14:14.727Z,60.66
2023-01-29T18:16:43.186Z,61.05
2023-01-29T18:19:13.937Z,60.96
2023-01-29T18:21:40.587Z,60.65
2023-01-29T18:24:08.203Z,60.13
2023-01-29T18:26:36.007Z,60.33
2023-01-29T18:29:03.352Z,60.81
2023-01-29T18:31:30.295Z,60.77
2023-01-29T18:33:56.990Z,61.12
2023-01-29T18:36:23.985Z,60.86
2023-01-29T18:38:50.579Z,60.52
2023-01-29T18:41:17.233Z,60.48
2023-01-29T18:43:44.323Z,60.28
2023-01-29T18:46:11.168Z,60.78
2023-01-29T18:48:37.886Z,61.41
2023-01-29T18:51:04.946Z,61.10
2023-01-29T18:53:33.536Z,61.33
2023-01-29T18:56:05.245Z,61.34
2023-01-29T18:58:36.661Z,62.41
2023-01-29T19:01:10.736Z,61.92
2023-01-29T19:03:42.044Z,61.36
2023-01-29T19:06:10.751Z,61.47
2023-01-29T19:08:37.784Z,61.60
2023-01-29T19:11:08.099Z,62.19
2023-01-29T19:13:36.374Z,61.89
2023-01-29T19:16:06.858Z,61.92
2023-01-29T19:18:33.617Z,61.88
2023-01-29T19:21:00.427Z,62.47
2023-01-29T19:23:27.084Z,62.07
2023-01-29T19:25:57.157Z,60.92
2023-01-29T19:28:23.766Z,61.81
2023-01-29T19:30:50.442Z,62.32
2023-01-29T19:33:17.162Z,62.23
2023-01-29T19:35:45.417Z,62.35
2023-01-29T19:38:12.212Z,61.50
2023-01-29T19:40:38.979Z,61.16
2023-01-29T19:43:05.926Z,61.36
2023-01-29T19:45:49.645Z,61.17
2023-01-29T19:48:21.425Z,61.62
2023-01-29T19:50:55.860Z,61.63
2023-01-29T19:53:23.136Z,61.91
2023-01-29T19:56:02.714Z,62.17
2023-01-29T19:58:30.597Z,62.78
2023-01-29T20:00:58.812Z,63.26
2023-01-29T20:03:26.432Z,62.79
2023-01-29T20:05:53.340Z,62.67
2023-01-29T20:08:20.663Z,62.84
2023-01-29T20:10:47.937Z,63.15
2023-01-29T20:13:16.191Z,63.47
2023-01-29T20:15:47.591Z,63.87
2023-01-29T20:18:15.087Z,63.40
2023-01-29T20:20:43.244Z,62.74
2023-01-29T20:23:10.972Z,63.37
2023-01-29T20:25:38.065Z,63.39
2023-01-29T20:28:07.597Z,63.70
2023-01-29T20:30:35.088Z,63.45
2023-01-29T20:33:02.843Z,63.80
2023-01-29T20:35:31.082Z,63.52
2023-01-29T20:37:59.098Z,63.00
2023-01-29T20:40:26.235Z,62.85
2023-01-29T20:42:53.285Z,62.61
2023-01-29T20:45:20.402Z,63.03
2023-01-29T20:47:47.082Z,63.42
2023-01-29T20:50:16.242Z,63.18
2023-01-29T20:52:43.129Z,63.52
2023-01-29T20:55:12.098Z,64.06
2023-01-29T20:57:39.490Z,63.61
2023-01-29T21:00:07.609Z,63.42
2023-01-29T21:02:35.161Z,63.82
2023-01-29T21:05:02.195Z,63.86
2023-01-29T21:07:28.947Z,64.29
2023-01-29T21:09:55.513Z,63.84
2023-01-29T21:12:22.210Z,64.66
2023-01-29T21:14:48.791Z,64.58
2023-01-29T21:17:15.582Z,64.74
2023-01-29T21:19:43.994Z,64.69
2023-01-29T21:22:10.744Z,64.10
2023-01-29T21:24:37.331Z,63.91
2023-01-29T21:27:04.007Z,63.69
2023-01-29T21:29:30.719Z,63.34
2023-01-29T21:31:57.482Z,64.03
2023-01-29T21:34:24.354Z,64.34
2023-01-29T21:36:51.089Z,64.67
2023-01-29T21:39:17.929Z,64.04
2023-01-29T21:42:04.197Z,64.19
2023-01-29T21:44:33.450Z,64.16
2023-01-29T21:47:00.857Z,64.56
2023-01-29T21:49:27.862Z,64.73
2023-01-29T21:51:54.697Z,64.09
2023-01-29T21:54:21.466Z,64.47
2023-01-29T21:56:48.190Z,64.94
2023-01-29T21:59:14.974Z,64.33
2023-01-29T22:01:41.717Z,64.50
2023-01-29T22:04:09.719Z,64.58
2023-01-29T22:06:36.304Z,64.24
2023-01-29T22:09:03.116Z,64.93
2023-01-29T22:11:30.086Z,64.64
2023-01-29T22:13:56.749Z,64.60
2023-01-29T22:16:23.362Z,64.96
2023-01-29T22:18:50.233Z,64.82
2023-01-29T22:21:16.845Z,64.74
2023-01-29T22:23:43.603Z,65.10
2023-01-29T22:26:11.001Z,65.13
2023-01-29T22:28:37.813Z,65.14
2023-01-29T22:31:05.502Z,65.20
2023-01-29T22:33:33.520Z,65.03
2023-01-29T22:36:00.550Z,65.19
2023-01-29T22:38:27.562Z,65.36
2023-01-29T22:40:55.674Z,65.28
2023-01-29T22:43:23.259Z,65.34
2023-01-29T22:45:49.792Z,64.45
2023-01-29T22:48:16.531Z,65.04
2023-01-29T22:50:49.255Z,64.53
2023-01-29T22:53:15.960Z,65.58
2023-01-29T22:55:42.580Z,65.99
2023-01-29T22:58:09.252Z,64.78
2023-01-29T23:00:35.912Z,64.92
2023-01-29T23:03:04.373Z,65.23
2023-01-29T23:05:30.972Z,65.74
2023-01-29T23:07:57.647Z,64.94
2023-01-29T23:10:24.270Z,65.43
2023-01-29T23:12:50.943Z,65.40
2023-01-29T23:15:17.577Z,66.14
2023-01-29T23:17:45.306Z,65.26
2023-01-29T23:20:12.526Z,65.44
2023-01-29T23:22:39.297Z,65.79
2023-01-29T23:25:06.484Z,65.67
2023-01-29T23:27:33.169Z,65.85
2023-01-29T23:29:59.778Z,66.21
2023-01-29T23:32:26.734Z,65.84
2023-01-29T23:34:53.424Z,65.74
2023-01-29T23:37:20.099Z,65.70
2023-01-29T23:39:46.837Z,65.94
2023-01-29T23:42:13.454Z,65.88
2023-01-29T23:44:40.953Z,66.03
2023-01-29T23:47:08.424Z,66.44
2023-01-29T23:49:35.051Z,65.87
2023-01-29T23:52:02.309Z,66.11
2023-01-29T23:54:29.315Z,67.17
2023-01-29T23:56:56.077Z,66.63
2023-01-29T23:59:22.791Z,66.19
